2022年8月14日

时间 代码 天气 温度 能见度 天花板 METAR/SPECI
00:30
V
26 °C 10 km+ - 090° 090° 10 kt METAR LFMK 132230Z AUTO 09010KT 060V130 CAVOK 26/23 Q1009
00:00
V
26 °C 10 km+ - 080° 080° 5 kt METAR LFMK 132200Z AUTO 08005KT 060V120 CAVOK 26/22 Q1009

2022年8月13日

时间 代码 天气 温度 能见度 天花板 METAR/SPECI
23:30
V
27 °C 10 km+ - 080° 080° 9 kt METAR LFMK 132130Z AUTO 08009KT CAVOK 27/23 Q1009
23:00
V
27 °C 10 km+ - 060° 060° 9 kt METAR LFMK 132100Z AUTO 06009KT CAVOK 27/23 Q1010
22:30
V
27 °C 10 km+ - 060° 060° 6 kt METAR LFMK 132030Z AUTO 06006KT 9999 ///TCU 27/23 Q1010
22:00
V
28 °C 10 km+ - 100° 100° 5 kt METAR LFMK 132000Z AUTO 10005KT 060V150 9999 //////CB 28/22 Q1010
21:30
V
28 °C 10 km+ - 090° 090° 6 kt METAR LFMK 131930Z AUTO 09006KT 9999 VCTS ///CB 28/22 Q1010
21:00
V
29 °C 10 km+ - 100° 100° 4 kt METAR LFMK 131900Z AUTO 10004KT 060V140 9999 //////TCU 29/22 Q1010
20:30
V
29 °C 10 km+ - 100° 100° 6 kt METAR LFMK 131830Z AUTO 10006KT 070V150 CAVOK 29/23 Q1010
20:00
V
30 °C 10 km+ - 070° 070° 9 kt METAR LFMK 131800Z AUTO 07009KT CAVOK 30/23 Q1010 TEMPO VRB15G25KT TSRA SCT060CB
19:30
V
30 °C 10 km+ - 070° 070° 8 kt METAR LFMK 131730Z AUTO 07008KT 9999 ///CB 30/23 Q1010 TEMPO VRB15G25KT TSRA
19:00
V
31 °C 10 km+ - 080° 080° 9 kt METAR LFMK 131700Z AUTO 08009KT 060V120 CAVOK 31/23 Q1010 TEMPO FEW080CB
18:30
V
32 °C 10 km+ - 070° 070° 12 kt METAR LFMK 131630Z AUTO 07012KT CAVOK 32/23 Q1009 TEMPO FEW080CB
18:00
V
32 °C 10 km+ - 070° 070° 11 kt METAR LFMK 131600Z AUTO 07011KT CAVOK 32/22 Q1009 TEMPO FEW080CB
17:30
V
33 °C 10 km+ - 060° 060° 10 kt METAR LFMK 131530Z AUTO 06010KT CAVOK 33/22 Q1010 TEMPO FEW080CB
17:00
V
34 °C 10 km+ - 080° 080° 11 kt METAR LFMK 131500Z AUTO 08011KT 050V120 CAVOK 34/21 Q1010 TEMPO FEW080CB
16:30
V
35 °C 10 km+ - 080° 080° 10 kt METAR LFMK 131430Z AUTO 08010KT 050V140 CAVOK 35/19 Q1009 TEMPO FEW080CB
16:00
V
36 °C 10 km+ - 090° 090° 6 kt METAR LFMK 131400Z AUTO 09006KT 050V160 CAVOK 36/18 Q1009 NOSIG
15:30
V
36 °C 10 km+ - 090° 090° 4 kt METAR LFMK 131330Z AUTO 09004KT 030V150 CAVOK 36/18 Q1010 NOSIG
15:00
V
36 °C 10 km+ - Var Var 3 kt METAR LFMK 131300Z AUTO VRB03KT CAVOK 36/18 Q1010 NOSIG
14:30
V
34 °C 10 km+ - 270° 270° 5 kt METAR LFMK 131230Z AUTO 27005KT 200V330 CAVOK 34/18 Q1010 BECMG 09010KT
14:00
V
33 °C 10 km+ - 300° 300° 6 kt METAR LFMK 131200Z AUTO 30006KT 220V340 CAVOK 33/19 Q1011 BECMG 09010KT
13:30
V
32 °C 10 km+ - 310° 310° 6 kt METAR LFMK 131130Z AUTO 31006KT 280V350 CAVOK 32/18 Q1011 BECMG 09010KT
13:00
V
30 °C 10 km+ - 270° 270° 5 kt METAR LFMK 131100Z AUTO 27005KT 220V310 CAVOK 30/19 Q1012 NOSIG
12:30
V
30 °C 10 km+ - 250° 250° 7 kt METAR LFMK 131030Z AUTO 25007KT 200V300 CAVOK 30/19 Q1012 NOSIG
12:00
V
28 °C 10 km+ - 260° 260° 7 kt METAR LFMK 131000Z AUTO 26007KT 160V300 CAVOK 28/19 Q1012 NOSIG
11:30
V
28 °C 10 km+ - 250° 250° 8 kt METAR LFMK 130930Z AUTO 25008KT 200V290 CAVOK 28/19 Q1012 NOSIG
11:00
V
27 °C 10 km+ - 250° 250° 9 kt METAR LFMK 130900Z AUTO 25009KT 210V280 9999 FEW003 27/19 Q1012 NOSIG
10:30
V
26 °C 10 km+ - 250° 250° 9 kt METAR LFMK 130830Z AUTO 25009KT 220V280 CAVOK 26/19 Q1013 NOSIG
10:00
V
25 °C 10 km+ - 260° 260° 10 kt METAR LFMK 130800Z AUTO 26010KT 230V290 CAVOK 25/19 Q1012 NOSIG
09:30
V
24 °C 10 km+ - 270° 270° 9 kt METAR LFMK 130730Z AUTO 27009KT 220V310 CAVOK 24/19 Q1012 NOSIG
09:00
V
23 °C 10 km+ - 260° 260° 9 kt METAR LFMK 130700Z AUTO 26009KT 220V290 CAVOK 23/19 Q1012 NOSIG
08:30
V
23 °C 10 km+ - 260° 260° 10 kt METAR LFMK 130630Z AUTO 26010KT 220V290 CAVOK 23/19 Q1012 NOSIG
08:00
V
23 °C 10 km+ - 250° 250° 9 kt METAR LFMK 130600Z AUTO 25009KT 210V280 CAVOK 23/19 Q1012 NOSIG
07:30
V
22 °C 10 km+ - 260° 260° 8 kt METAR LFMK 130530Z AUTO 26008KT 230V290 CAVOK 22/19 Q1012 NOSIG
07:00
V
22 °C 10 km+ - 260° 260° 7 kt METAR LFMK 130500Z AUTO 26007KT 230V300 CAVOK 22/19 Q1012 NOSIG
06:30
V
23 °C 10 km+ - 270° 270° 11 - 23 kt METAR LFMK 130430Z AUTO 27011G23KT 240V310 CAVOK 23/19 Q1012 NOSIG
06:00
V
23 °C 10 km+ - 270° 270° 12 kt METAR LFMK 130400Z AUTO 27012KT CAVOK 23/19 Q1012 NOSIG
05:30
V
24 °C 10 km+ - 280° 280° 13 kt METAR LFMK 130330Z AUTO 28013KT CAVOK 24/19 Q1012 NOSIG
05:00
V
26 °C 10 km+ - 280° 280° 14 kt METAR LFMK 130300Z AUTO 28014KT CAVOK 26/19 Q1012 NOSIG
04:30
V
27 °C 10 km+ - 270° 270° 9 kt METAR LFMK 130230Z AUTO 27009KT CAVOK 27/19 Q1012 NOSIG
04:00
V
27 °C 10 km+ - 270° 270° 8 kt METAR LFMK 130200Z AUTO 27008KT CAVOK 27/18 Q1011
03:30
V
28 °C 10 km+ - 260° 260° 6 kt METAR LFMK 130130Z AUTO 26006KT 220V290 CAVOK 28/17 Q1011
03:00
V
28 °C 10 km+ - 280° 280° 10 kt METAR LFMK 130100Z AUTO 28010KT CAVOK 28/17 Q1011
02:30
V
24 °C 10 km+ - Var Var 1 kt METAR LFMK 130030Z AUTO VRB01KT CAVOK 24/17 Q1011
02:00
V
25 °C 10 km+ - Var Var 1 kt METAR LFMK 130000Z AUTO VRB01KT CAVOK 25/16 Q1011
01:30
V
26 °C 10 km+ - Var Var 2 kt METAR LFMK 122330Z AUTO VRB02KT CAVOK 26/16 Q1011
01:00
V
27 °C 10 km+ - 180° 180° 4 kt METAR LFMK 122300Z AUTO 18004KT 140V230 CAVOK 27/16 Q1011
00:30
V
28 °C 10 km+ - 170° 170° 3 kt METAR LFMK 122230Z AUTO 17003KT 130V210 CAVOK 28/16 Q1010
00:00
V
28 °C 10 km+ - 170° 170° 3 kt METAR LFMK 122200Z AUTO 17003KT 110V230 CAVOK 28/16 Q1010

2022年8月12日

时间 代码 天气 温度 能见度 天花板 METAR/SPECI
23:30
V
28 °C 10 km+ - Var Var 3 kt METAR LFMK 122130Z AUTO VRB03KT CAVOK 28/17 Q1010
23:00
V
28 °C 10 km+ - Var Var 2 kt METAR LFMK 122100Z AUTO VRB02KT CAVOK 28/16 Q1010
22:30
V
29 °C 10 km+ - 260° 260° 3 kt METAR LFMK 122030Z AUTO 26003KT CAVOK 29/17 Q1010
22:00
V
30 °C 10 km+ - 240° 240° 3 kt METAR LFMK 122000Z AUTO 24003KT CAVOK 30/17 Q1010
21:30
V
30 °C 10 km+ - 260° 260° 2 kt METAR LFMK 121930Z AUTO 26002KT CAVOK 30/16 Q1010
21:00
V
33 °C 10 km+ - 270° 270° 2 kt METAR LFMK 121900Z AUTO 27002KT CAVOK 33/16 Q1009
20:30
V
36 °C 10 km+ - Var Var 3 kt METAR LFMK 121830Z AUTO VRB03KT CAVOK 36/16 Q1009
20:00
V
38 °C 10 km+ - 330° 330° 4 kt METAR LFMK 121800Z AUTO 33004KT 310V010 CAVOK 38/15 Q1009 NOSIG
19:30
V
39 °C 10 km+ - 300° 300° 7 kt METAR LFMK 121730Z AUTO 30007KT 260V010 CAVOK 39/15 Q1009 NOSIG
19:00
V
40 °C 10 km+ - 330° 330° 8 kt METAR LFMK 121700Z AUTO 33008KT 290V360 CAVOK 40/15 Q1009 NOSIG
18:30
V
40 °C 10 km+ - 330° 330° 9 kt METAR LFMK 121630Z AUTO 33009KT 290V360 CAVOK 40/14 Q1009 NOSIG
18:00
V
40 °C 10 km+ - 310° 310° 8 kt METAR LFMK 121600Z AUTO 31008KT 270V340 CAVOK 40/15 Q1009 NOSIG
17:30
V
40 °C 10 km+ - 300° 300° 9 kt METAR LFMK 121530Z AUTO 30009KT 260V340 CAVOK 40/15 Q1009 NOSIG
17:00
V
40 °C 10 km+ - 320° 320° 9 kt METAR LFMK 121500Z AUTO 32009KT 260V360 CAVOK 40/15 Q1010 NOSIG
16:30
V
40 °C 10 km+ - 320° 320° 10 kt METAR LFMK 121430Z AUTO 32010KT 300V360 CAVOK 40/15 Q1010 NOSIG
16:00
V
40 °C 10 km+ - 310° 310° 9 kt METAR LFMK 121400Z AUTO 31009KT 270V330 CAVOK 40/15 Q1010 NOSIG
15:30
V
40 °C 10 km+ - 300° 300° 9 kt METAR LFMK 121330Z AUTO 30009KT 230V350 CAVOK 40/16 Q1010 NOSIG
15:00
V
39 °C 10 km+ - 270° 270° 10 kt METAR LFMK 121300Z AUTO 27010KT 200V310 CAVOK 39/15 Q1011 NOSIG
14:30
V
39 °C 10 km+ - 280° 280° 10 kt METAR LFMK 121230Z AUTO 28010KT 240V310 CAVOK 39/16 Q1011 NOSIG
14:00
V
38 °C 10 km+ - 290° 290° 9 kt METAR LFMK 121200Z AUTO 29009KT 250V310 CAVOK 38/17 Q1011 NOSIG
13:30
V
36 °C 10 km+ - 270° 270° 7 kt METAR LFMK 121130Z AUTO 27007KT 200V320 CAVOK 36/18 Q1012 NOSIG
13:00
V
35 °C 10 km+ - 280° 280° 5 kt METAR LFMK 121100Z AUTO 28005KT 220V350 CAVOK 35/19 Q1012 NOSIG
12:30
V
33 °C 10 km+ - 280° 280° 4 kt METAR LFMK 121030Z AUTO 28004KT 210V330 CAVOK 33/20 Q1012 NOSIG
12:00
V
32 °C 10 km+ - 260° 260° 3 kt METAR LFMK 121000Z AUTO 26003KT 160V330 CAVOK 32/21 Q1013 NOSIG
11:30
V
30 °C 10 km+ - 330° 330° 3 kt METAR LFMK 120930Z AUTO 33003KT 280V060 CAVOK 30/21 Q1013 NOSIG
11:00
V
29 °C 10 km+ - Var Var 2 kt METAR LFMK 120900Z AUTO VRB02KT CAVOK 29/22 Q1013 BECMG 28012KT
10:30
V
28 °C 10 km+ - 080° 080° 3 kt METAR LFMK 120830Z AUTO 08003KT 040V120 CAVOK 28/22 Q1013 NOSIG
10:00
V
28 °C 10 km+ - 070° 070° 3 kt METAR LFMK 120800Z AUTO 07003KT 330V120 CAVOK 28/22 Q1014 NOSIG
09:30
V
27 °C 10 km+ - 080° 080° 4 kt METAR LFMK 120730Z AUTO 08004KT 030V140 9999 SCT013 27/22 Q1014 NOSIG
09:00
V
26 °C 10 km+ - 070° 070° 5 kt METAR LFMK 120700Z AUTO 07005KT 040V120 9999 SCT009 26/22 Q1013 NOSIG
08:30
I
25 °C 10 km+ 700 ft Var Var 3 kt METAR LFMK 120630Z AUTO VRB03KT 9999 BKN007 25/21 Q1014 BECMG NSC
08:00
M
24 °C 10 km+ 1.300 ft 070° 070° 4 kt METAR LFMK 120600Z AUTO 07004KT 040V100 9999 BKN013 24/22 Q1014 BECMG NSC
07:30
M
24 °C 10 km+ 1.300 ft 050° 050° 4 kt METAR LFMK 120530Z AUTO 05004KT 9999 OVC013 24/22 Q1013 BECMG NSC
07:00
M
24 °C 10 km+ 1.100 ft 060° 060° 4 kt METAR LFMK 120500Z AUTO 06004KT 9999 OVC011 24/22 Q1013 TEMPO BKN009
06:30
M
24 °C 10 km+ 1.200 ft 060° 060° 5 kt METAR LFMK 120430Z AUTO 06005KT 9999 OVC012 24/22 Q1013 TEMPO BKN009
06:00
M
24 °C 10 km+ 1.200 ft 060° 060° 6 kt METAR LFMK 120400Z AUTO 06006KT 9999 OVC012 24/22 Q1013 TEMPO BKN009
05:30
M
24 °C 10 km+ 1.000 ft 050° 050° 3 kt METAR LFMK 120330Z AUTO 05003KT 9999 OVC010 24/22 Q1013 NOSIG
05:00
I
24 °C 10 km+ 800 ft 060° 060° 6 kt METAR LFMK 120300Z AUTO 06006KT 9999 BKN008 OVC012 24/23 Q1013
04:30
M
24 °C 10 km+ 1.300 ft 080° 080° 8 kt METAR LFMK 120230Z AUTO 08008KT 9999 SCT009 OVC013 24/23 Q1014
04:00
M
24 °C 10 km+ 1.300 ft 080° 080° 6 kt METAR LFMK 120200Z AUTO 08006KT 050V160 9999 OVC013 24/23 Q1014
03:30
I
24 °C 10 km+ 700 ft 080° 080° 8 kt METAR LFMK 120130Z AUTO 08008KT 9999 BKN007 OVC013 24/23 Q1014
03:00
M
24 °C 10 km+ 1.300 ft 090° 090° 7 kt METAR LFMK 120100Z AUTO 09007KT 060V120 9999 SCT007 OVC013 24/23 Q1014
02:30
V
24 °C 10 km+ - 090° 090° 7 kt METAR LFMK 120030Z AUTO 09007KT 050V120 9999 FEW008 24/23 Q1014
02:00
M
24 °C 10 km+ 1.000 ft 080° 080° 8 kt METAR LFMK 120000Z AUTO 08008KT 9999 BKN010 24/23 Q1014
01:30
I
24 °C 10 km+ 900 ft 080° 080° 7 kt METAR LFMK 112330Z AUTO 08007KT 9999 BKN009 24/23 Q1014
01:00
I
24 °C 10 km+ 800 ft 080° 080° 8 kt METAR LFMK 112300Z AUTO 08008KT 9999 BKN008 24/23 Q1014
00:30
V
25 °C 10 km+ - 090° 090° 7 kt METAR LFMK 112230Z AUTO 09007KT 060V130 CAVOK 25/23 Q1014
00:00
V
25 °C 10 km+ - 090° 090° 6 kt METAR LFMK 112200Z AUTO 09006KT 060V140 CAVOK 25/23 Q1014

2022年8月11日

时间 代码 天气 温度 能见度 天花板 METAR/SPECI
23:30
V
25 °C 10 km+ - 090° 090° 6 kt METAR LFMK 112130Z AUTO 09006KT 060V160 CAVOK 25/23 Q1014
23:00
V
26 °C 10 km+ - 090° 090° 7 kt METAR LFMK 112100Z AUTO 09007KT 050V120 CAVOK 26/23 Q1014
22:30
V
26 °C 10 km+ - 080° 080° 10 kt METAR LFMK 112030Z AUTO 08010KT CAVOK 26/22 Q1014
22:00
V
26 °C 10 km+ - 080° 080° 10 kt METAR LFMK 112000Z AUTO 08010KT CAVOK 26/22 Q1014
21:30
V
27 °C 10 km+ - 080° 080° 11 kt METAR LFMK 111930Z AUTO 08011KT CAVOK 27/22 Q1013
21:00
V
27 °C 10 km+ - 080° 080° 12 kt METAR LFMK 111900Z AUTO 08012KT CAVOK 27/21 Q1013
20:30
V
28 °C 10 km+ - 080° 080° 13 kt METAR LFMK 111830Z AUTO 08013KT 050V110 CAVOK 28/22 Q1013
20:00
V
29 °C 10 km+ - 090° 090° 14 kt METAR LFMK 111800Z AUTO 09014KT CAVOK 29/23 Q1013 NOSIG
19:30
V
30 °C 10 km+ - 080° 080° 17 kt METAR LFMK 111730Z AUTO 08017KT CAVOK 30/23 Q1013 NOSIG
19:00
V
31 °C 10 km+ - 070° 070° 14 kt METAR LFMK 111700Z AUTO 07014KT CAVOK 31/23 Q1013 NOSIG
18:30
V
31 °C 10 km+ - 080° 080° 16 kt METAR LFMK 111630Z AUTO 08016KT CAVOK 31/23 Q1013 NOSIG
18:00
V
32 °C 10 km+ - 080° 080° 15 kt METAR LFMK 111600Z AUTO 08015KT CAVOK 32/22 Q1013 NOSIG
17:30
V
32 °C 10 km+ - 070° 070° 15 kt METAR LFMK 111530Z AUTO 07015KT CAVOK 32/22 Q1013 NOSIG
17:00
V
33 °C 10 km+ - 080° 080° 14 kt METAR LFMK 111500Z AUTO 08014KT 050V110 CAVOK 33/22 Q1013 NOSIG
较旧的数据

我们和第三方通过cookies跟踪您在我们网站上的上网行为。如果您继续,我们认为您同意我们的cookie政策。 了解更多